.
WxDataArchive / Data Records for 2008-06-02
2008-06-01 June 2008 2008-06-03

Data Records for Monday, 02 June 2008

Time	Temp	Chill	HIndex	Humid	Dewpt	 Wind 	HiWind	WindDir	Rain 	Barom 
-----	----	-----	------	-----	-----	------	------	-------	-----	----- 
00:00	56.3	56.3	56.3	80	50.2	0	0	---	0.00	29.931 
00:05	56.2	56.2	56.2	81	50.4	0	0	---	0.00	29.932 
00:10	56.0	56.0	56.0	81	50.3	0	0	---	0.00	29.932 
00:15	55.9	55.9	55.9	81	50.2	0	0	---	0.00	29.932 
00:20	55.7	55.7	55.7	82	50.3	0	0	---	0.00	29.932 
00:25	55.6	55.6	55.6	82	50.2	0	0	---	0.00	29.932 
00:30	55.3	55.3	55.3	83	50.2	0	0	---	0.00	29.931 
00:35	55.1	55.1	55.1	84	50.4	0	0	---	0.00	29.930 
00:40	55.0	55.0	55.0	84	50.3	0	0	---	0.00	29.927 
00:45	54.8	54.8	54.8	85	50.4	0	0	---	0.00	29.926 
00:50	54.7	54.7	54.7	86	50.6	0	0	---	0.00	29.926 
00:55	54.5	54.5	54.5	86	50.4	0	0	---	0.00	29.926 
01:00	54.4	54.4	54.4	86	50.3	0	0	---	0.00	29.928 
01:05	54.2	54.2	54.2	86	50.1	0	0	---	0.00	29.928 
01:10	54.1	54.1	54.1	87	50.3	0	0	---	0.00	29.928 
01:15	53.9	53.9	53.9	87	50.1	0	0	---	0.00	29.928 
01:20	53.9	53.9	53.9	88	50.4	0	0	---	0.00	29.929 
01:25	53.8	53.8	53.8	88	50.3	0	0	---	0.00	29.928 
01:30	53.6	53.6	53.6	88	50.1	0	0	---	0.00	29.929 
01:35	53.5	53.5	53.5	89	50.3	0	0	---	0.00	29.927 
01:40	53.5	53.5	53.5	89	50.3	0	0	---	0.00	29.928 
01:45	53.3	53.3	53.3	90	50.4	0	0	---	0.00	29.929 
01:50	53.2	53.2	53.2	90	50.3	0	0	---	0.00	29.928 
01:55	53.1	53.1	53.1	90	50.2	0	0	---	0.00	29.929 
02:00	53.1	53.1	53.1	91	50.5	0	0	---	0.00	29.930 
02:05	52.9	52.9	52.9	91	50.3	0	0	---	0.00	29.929 
02:10	52.8	52.8	52.8	91	50.2	0	0	---	0.00	29.927 
02:15	52.6	52.6	52.6	91	50.0	0	0	---	0.00	29.925 
02:20	52.5	52.5	52.5	91	49.9	0	0	---	0.00	29.923 
02:25	52.3	52.3	52.3	91	49.8	0	0	---	0.00	29.922 
02:30	52.3	52.3	52.3	92	50.0	0	0	---	0.00	29.922 
02:35	52.3	52.3	52.3	92	50.0	0	0	---	0.00	29.923 
02:40	52.2	52.2	52.2	92	49.9	0	0	---	0.00	29.920 
02:45	52.2	52.2	52.2	92	49.9	0	0	---	0.00	29.919 
02:50	52.2	52.2	52.2	92	49.9	0	0	---	0.00	29.921 
02:55	52.2	52.2	52.2	92	49.9	0	0	---	0.00	29.922 
03:00	52.0	52.0	52.0	92	49.7	0	0	---	0.00	29.920 
03:05	52.0	52.0	52.0	93	50.0	0	0	---	0.00	29.918 
03:10	51.9	51.9	51.9	93	49.9	0	0	---	0.00	29.918 
03:15	51.9	51.9	51.9	93	49.9	0	0	---	0.00	29.917 
03:20	51.7	51.7	51.7	93	49.7	0	0	---	0.00	29.918 
03:25	51.7	51.7	51.7	93	49.7	0	0	---	0.00	29.923 
03:30	51.7	51.7	51.7	93	49.7	0	0	---	0.00	29.923 
03:35	51.7	51.7	51.7	93	49.7	0	0	---	0.00	29.922 
03:40	51.6	51.6	51.6	93	49.6	0	0	---	0.00	29.922 
03:45	51.6	51.6	51.6	94	49.9	0	0	---	0.00	29.922 
03:50	51.6	51.6	51.6	94	49.9	0	0	---	0.00	29.924 
03:55	51.4	51.4	51.4	94	49.7	0	0	---	0.00	29.930 
04:00	51.4	51.4	51.4	94	49.7	0	0	---	0.00	29.929 
04:05	51.3	51.3	51.3	94	49.6	0	0	---	0.00	29.930 
04:10	51.3	51.3	51.3	94	49.6	0	0	---	0.00	29.930 
04:15	51.3	51.3	51.3	94	49.6	0	0	---	0.00	29.930 
04:20	51.3	51.3	51.3	94	49.6	0	0	---	0.00	29.927 
04:25	51.1	51.1	51.1	94	49.4	0	0	---	0.00	29.929 
04:30	51.3	51.3	51.3	94	49.6	0	0	---	0.00	29.929 
04:35	51.3	51.3	51.3	94	49.6	0	0	---	0.00	29.931 
04:40	51.1	51.1	51.1	94	49.4	0	0	---	0.00	29.931 
04:45	51.1	51.1	51.1	94	49.4	0	0	---	0.00	29.932 
04:50	51.1	51.1	51.1	94	49.4	0	0	---	0.00	29.933 
04:55	51.1	51.1	51.1	94	49.4	0	0	---	0.00	29.930 
05:00	51.1	51.1	51.1	94	49.4	0	0	---	0.00	29.927 
05:05	51.1	51.1	51.1	94	49.4	0	0	---	0.00	29.928 
05:10	51.0	51.0	51.0	94	49.3	0	0	---	0.00	29.927 
05:15	51.0	51.0	51.0	94	49.3	0	0	---	0.00	29.931 
05:20	51.0	51.0	51.0	95	49.6	0	0	---	0.00	29.930 
05:25	51.1	51.1	51.1	95	49.7	0	0	---	0.00	29.932 
05:30	51.4	51.4	51.4	95	50.0	0	0	---	0.00	29.933 
05:35	51.9	51.9	51.9	95	50.5	0	0	---	0.00	29.934 
05:40	52.3	52.3	52.3	95	50.9	0	0	---	0.00	29.936 
05:45	52.6	52.6	52.6	95	51.2	0	0	---	0.00	29.931 
05:50	53.1	53.1	53.1	95	51.7	0	0	---	0.00	29.932 
05:55	53.5	53.5	53.5	95	52.1	0	0	---	0.00	29.933 
06:00	53.8	53.8	53.8	95	52.4	0	0	---	0.00	29.932 
06:05	54.1	54.1	54.1	95	52.7	0	0	---	0.00	29.933 
06:10	54.4	54.4	54.4	95	53.0	0	0	---	0.00	29.933 
06:15	54.5	54.5	54.5	95	53.1	0	0	---	0.00	29.933 
06:20	54.7	54.7	54.7	95	53.3	0	0	---	0.00	29.931 
06:25	55.0	55.0	55.0	95	53.6	0	0	---	0.00	29.929 
06:30	55.4	55.4	55.4	95	54.0	0	1	0	0.00	29.932 
06:35	56.2	56.2	56.2	95	54.8	0	0	---	0.00	29.932 
06:40	57.2	57.2	57.2	95	55.8	0	0	---	0.00	29.933 
06:45	58.6	58.6	58.6	92	56.3	0	0	---	0.00	29.930 
06:50	59.6	59.6	59.6	88	56.0	0	0	---	0.00	29.932 
06:55	60.4	60.4	60.4	87	56.5	0	0	---	0.00	29.931 
07:00	61.3	61.3	61.3	85	56.7	0	0	---	0.00	29.930 
07:05	62.4	62.4	62.4	79	55.8	0	1	0	0.00	29.931 
07:10	63.1	63.1	63.1	73	54.3	0	1	0	0.00	29.932 
07:15	64.2	64.2	64.2	71	54.6	0	1	0	0.00	29.928 
07:20	65.2	65.2	65.2	69	54.8	0	1	0	0.00	29.926 
07:25	66.0	66.0	66.0	65	53.9	0	1	0	0.00	29.926 
07:30	66.4	66.4	66.4	66	54.7	0	1	0	0.00	29.926 
07:35	66.8	66.8	66.8	64	54.2	0	1	0	0.00	29.927 
07:40	67.1	67.1	67.1	65	54.9	0	0	---	0.00	29.927 
07:45	67.6	67.6	67.6	62	54.1	0	1	0	0.00	29.928 
07:50	68.3	68.3	68.3	58	52.9	0	1	0	0.00	29.931 
07:55	68.4	68.4	68.4	59	53.5	0	1	0	0.00	29.932 
08:00	68.8	68.8	68.8	59	53.9	0	1	0	0.00	29.928 
08:05	69.8	69.8	69.8	54	52.4	0	1	0	0.00	29.931 
08:10	70.8	70.8	70.8	51	51.8	1	2	0	0.00	29.934 
08:15	71.1	71.1	71.1	52	52.6	0	1	0	0.00	29.939 
08:20	71.6	71.6	71.6	53	53.5	0	1	0	0.00	29.940 
08:25	71.8	71.8	71.8	53	53.7	0	1	0	0.00	29.941 
08:30	71.3	71.3	71.3	52	52.8	0	1	0	0.00	29.947 
08:35	71.3	71.3	71.3	52	52.8	0	3	0	0.00	29.948 
08:40	71.8	71.8	71.8	51	52.7	0	2	248	0.00	29.953 
08:45	72.1	72.1	72.1	49	51.9	1	2	248	0.00	29.945 
08:50	72.3	72.3	72.3	52	53.7	0	1	248	0.00	29.947 
08:55	72.7	72.7	72.7	52	54.0	0	1	248	0.00	29.948 
09:00	73.2	73.2	73.2	52	54.5	0	2	248	0.00	29.948 
09:05	73.5	73.5	73.5	49	53.2	1	3	248	0.00	29.947 
09:10	74.0	74.0	74.0	48	53.0	1	3	248	0.00	29.952 
09:15	74.2	74.2	74.2	46	52.1	1	3	248	0.00	29.952 
09:20	74.6	74.6	74.6	44	51.2	1	3	248	0.00	29.946 
09:25	75.1	75.1	77.7	46	52.9	1	2	248	0.00	29.946 
09:30	75.4	75.4	77.8	47	53.7	1	2	248	0.00	29.949 
09:35	75.8	75.8	77.9	44	52.3	1	3	248	0.00	29.947 
09:40	76.0	76.0	77.9	41	50.6	1	3	248	0.00	29.946 
09:45	76.1	76.1	78.0	43	52.0	1	3	248	0.00	29.948 
09:50	76.3	76.3	77.9	39	49.5	1	2	248	0.00	29.946 
09:55	76.8	76.8	78.2	42	51.9	1	4	112	0.00	29.942 
10:00	77.0	77.0	78.3	41	51.5	1	2	225	0.00	29.940 
10:05	77.0	77.0	78.2	39	50.1	0	2	225	0.00	29.941 
10:10	77.4	77.4	78.6	43	53.1	0	2	225	0.00	29.940 
10:15	77.7	77.7	78.7	43	53.4	1	3	292	0.00	29.942 
10:20	78.3	78.3	78.6	36	49.1	1	2	292	0.00	29.943 
10:25	78.5	78.5	78.9	39	51.5	1	2	225	0.00	29.943 
10:30	78.6	78.6	78.9	38	50.8	1	3	292	0.00	29.943 
10:35	79.0	79.0	79.2	39	51.9	1	2	292	0.00	29.944 
10:40	79.2	79.2	79.3	39	52.1	1	4	68	0.00	29.943 
10:45	79.0	79.0	79.2	38	51.2	1	3	270	0.00	29.942 
10:50	79.2	79.2	79.3	38	51.4	1	4	135	0.00	29.941 
10:55	79.6	79.6	79.3	35	49.5	1	4	90	0.00	29.940 
11:00	79.6	79.6	79.5	38	51.7	1	3	90	0.00	29.940 
11:05	79.8	79.8	79.4	35	49.7	1	2	248	0.00	29.941 
11:10	80.3	80.3	79.7	34	49.3	1	4	90	0.00	29.940 
11:15	80.5	80.5	79.8	34	49.5	1	2	90	0.00	29.940 
11:20	80.7	80.7	80.2	37	52.0	0	2	225	0.00	29.938 
11:25	81.1	81.1	80.5	38	53.1	1	4	135	0.00	29.938 
11:30	81.4	81.4	80.8	38	53.3	1	2	158	0.00	29.935 
11:35	81.4	81.4	80.9	39	54.0	1	2	225	0.00	29.934 
11:40	81.6	81.6	80.7	36	52.0	1	4	270	0.00	29.931 
11:45	81.6	81.6	80.6	35	51.3	1	3	270	0.00	29.926 
11:50	81.2	81.2	80.3	34	50.1	1	4	270	0.00	29.928 
11:55	81.6	81.6	81.0	39	54.2	0	2	270	0.00	29.926 
12:00	81.6	81.6	80.6	35	51.3	1	4	248	0.00	29.924 
12:05	82.0	82.0	81.5	40	55.3	0	1	248	0.00	29.924 
12:10	82.4	82.4	81.7	39	54.9	1	3	248	0.00	29.920 
12:15	82.6	82.6	81.7	38	54.4	1	3	338	0.00	29.914 
12:20	82.2	82.2	81.1	35	51.8	1	2	315	0.00	29.913 
12:25	82.6	82.6	82.1	41	56.5	0	2	292	0.00	29.911 
12:30	82.4	82.4	81.0	33	50.4	1	2	112	0.00	29.912 
12:35	81.6	81.6	80.6	35	51.3	1	2	112	0.00	29.909 
12:40	80.7	80.7	80.2	37	52.0	1	4	90	0.00	29.909 
12:45	80.1	80.1	79.7	36	50.7	1	3	248	0.00	29.906 
12:50	79.9	79.9	79.8	39	52.7	1	3	248	0.00	29.906 
12:55	80.5	80.5	80.2	39	53.2	0	2	202	0.00	29.902 
13:00	81.1	81.1	80.6	39	53.8	1	2	202	0.00	29.902 
13:05	82.0	82.0	81.3	39	54.6	0	2	158	0.00	29.906 
13:10	82.6	82.6	81.4	35	52.1	1	2	158	0.00	29.910 
13:15	82.4	82.4	80.8	30	47.8	1	4	225	0.00	29.904 
13:20	82.2	82.2	80.7	31	48.5	2	5	338	0.00	29.905 
13:25	82.4	82.4	80.7	29	46.9	0	2	202	0.00	29.904 
13:30	83.2	83.2	81.2	28	46.7	1	5	90	0.00	29.905 
13:35	83.4	83.4	82.1	35	52.8	1	4	90	0.00	29.911 
13:40	82.8	82.8	81.2	31	49.0	1	3	248	0.00	29.912 
13:45	82.8	82.8	81.3	33	50.7	1	2	248	0.00	29.912 
13:50	83.4	83.4	81.8	33	51.2	1	3	248	0.00	29.911 
13:55	83.2	83.2	81.8	34	51.9	1	3	270	0.00	29.911 
14:00	83.0	83.0	81.5	33	50.9	1	2	315	0.00	29.910 
14:05	83.8	83.8	82.2	33	51.6	1	3	248	0.00	29.909 
14:10	83.8	83.8	81.9	31	49.9	1	3	315	0.00	29.910 
14:15	84.1	84.1	82.0	29	48.4	0	2	315	0.00	29.909 
14:20	84.5	84.5	82.5	31	50.5	1	4	248	0.00	29.909 
14:25	84.1	84.1	81.8	27	46.5	1	4	248	0.00	29.908 
14:30	83.8	83.8	81.7	29	48.1	2	4	315	0.00	29.900 
14:35	83.6	83.6	81.6	29	48.0	2	4	248	0.00	29.902 
14:40	84.0	84.0	82.0	30	49.2	1	4	248	0.00	29.904 
14:45	84.3	84.3	82.3	30	49.5	0	2	202	0.00	29.899 
14:50	84.1	84.1	82.1	30	49.3	1	3	202	0.00	29.899 
14:55	83.6	83.6	81.6	29	48.0	1	4	248	0.00	29.896 
15:00	84.0	84.0	82.1	31	50.1	0	2	248	0.00	29.893 
15:05	84.3	84.3	82.4	31	50.3	1	3	248	0.00	29.891 
15:10	85.1	85.1	83.1	31	51.0	0	2	248	0.00	29.891 
15:15	85.3	85.3	83.2	31	51.2	1	4	248	0.00	29.886 
15:20	85.3	85.3	83.2	31	51.2	1	3	248	0.00	29.885 
15:25	84.9	84.9	82.8	30	50.0	1	4	225	0.00	29.881 
15:30	84.9	84.9	82.8	30	50.0	1	3	225	0.00	29.880 
15:35	84.3	84.3	82.5	32	51.2	1	4	248	0.00	29.879 
15:40	84.0	84.0	82.0	30	49.2	1	3	248	0.00	29.881 
15:45	83.8	83.8	82.1	32	50.8	0	2	248	0.00	29.880 
15:50	84.0	84.0	82.6	35	53.4	0	2	248	0.00	29.880 
15:55	83.6	83.6	82.0	33	51.4	1	3	248	0.00	29.880 
16:00	83.6	83.6	81.8	31	49.7	1	2	248	0.00	29.881 
16:05	83.2	83.2	81.8	34	51.9	1	3	248	0.00	29.876 
16:10	83.0	83.0	81.5	33	50.9	1	5	225	0.00	29.876 
16:15	83.0	83.0	81.7	35	52.5	1	4	248	0.00	29.871 
16:20	83.4	83.4	82.2	36	53.6	2	6	248	0.00	29.871 
16:25	83.6	83.6	82.0	33	51.4	1	4	270	0.00	29.872 
16:30	83.4	83.4	81.8	33	51.2	1	3	270	0.00	29.871 
16:35	83.0	83.0	81.8	36	53.3	1	3	248	0.00	29.871 
16:40	82.4	82.4	81.2	35	52.0	1	4	270	0.00	29.868 
16:45	82.2	82.2	81.3	37	53.3	1	5	248	0.00	29.868 
16:50	82.4	82.4	81.1	34	51.2	1	3	225	0.00	29.867 
16:55	82.4	82.4	81.7	39	54.9	0	2	225	0.00	29.867 
17:00	81.8	81.8	80.9	36	52.2	0	2	225	0.00	29.868 
17:05	81.2	81.2	80.3	35	50.9	0	2	225	0.00	29.867 
17:10	81.2	81.2	80.5	37	52.4	1	4	112	0.00	29.865 
17:15	81.1	81.1	80.4	36	51.6	0	3	292	0.00	29.865 
17:20	81.1	81.1	80.4	37	52.3	0	2	292	0.00	29.860 
17:25	81.2	81.2	80.7	39	53.9	0	1	292	0.00	29.857 
17:30	81.2	81.2	80.6	38	53.1	0	1	292	0.00	29.855 
17:35	81.2	81.2	80.6	38	53.1	0	1	292	0.00	29.850 
17:40	81.2	81.2	80.7	39	53.9	0	2	292	0.00	29.848 
17:45	81.2	81.2	80.6	38	53.1	0	1	292	0.00	29.844 
17:50	81.2	81.2	80.6	38	53.1	0	2	90	0.00	29.837 
17:55	81.1	81.1	80.5	38	53.1	0	1	90	0.00	29.835 
18:00	81.1	81.1	80.6	39	53.8	0	2	90	0.00	29.833 
18:05	81.1	81.1	80.7	40	54.5	0	1	90	0.00	29.827 
18:10	81.2	81.2	80.6	38	53.1	1	3	90	0.00	29.827 
18:15	81.2	81.2	80.8	40	54.6	0	2	90	0.00	29.827 
18:20	81.2	81.2	80.8	40	54.6	0	1	90	0.00	29.827 
18:25	81.1	81.1	80.6	39	53.8	0	2	90	0.00	29.825 
18:30	80.9	80.9	80.5	39	53.6	0	1	90	0.00	29.821 
18:35	80.7	80.7	80.3	39	53.4	0	2	90	0.00	29.820 
18:40	80.3	80.3	80.1	40	53.8	0	2	90	0.00	29.817 
18:45	80.1	80.1	80.0	40	53.6	0	1	90	0.00	29.818 
18:50	79.9	79.9	79.9	40	53.4	0	1	90	0.00	29.820 
18:55	79.8	79.8	80.0	42	54.6	0	1	90	0.00	29.820 
19:00	79.6	79.6	79.8	42	54.5	0	1	90	0.00	29.821 
19:05	79.2	79.2	79.7	44	55.4	0	1	90	0.00	29.815 
19:10	78.8	78.8	79.4	44	55.0	0	1	90	0.00	29.812 
19:15	78.5	78.5	79.3	45	55.4	0	1	90	0.00	29.809 
19:20	78.3	78.3	79.2	45	55.2	0	1	90	0.00	29.810 
19:25	77.9	77.9	78.9	45	54.8	0	1	90	0.00	29.812 
19:30	77.7	77.7	78.9	46	55.2	0	1	90	0.00	29.814 
19:35	77.4	77.4	78.7	47	55.6	0	1	90	0.00	29.813 
19:40	77.2	77.2	78.7	48	56.0	0	1	90	0.00	29.811 
19:45	77.0	77.0	78.6	49	56.4	0	1	90	0.00	29.812 
19:50	76.8	76.8	78.4	48	55.6	0	1	90	0.00	29.812 
19:55	76.7	76.7	78.4	49	56.1	0	1	90	0.00	29.812 
20:00	76.5	76.5	78.3	49	55.9	0	1	90	0.00	29.810 
20:05	76.3	76.3	78.2	50	56.3	0	1	90	0.00	29.807 
20:10	76.1	76.1	78.1	50	56.1	0	1	90	0.00	29.808 
20:15	76.0	76.0	78.1	51	56.5	0	0	---	0.00	29.807 
20:20	75.6	75.6	77.9	51	56.2	0	1	90	0.00	29.809 
20:25	75.4	75.4	77.8	51	56.0	0	1	90	0.00	29.815 
20:30	75.4	75.4	77.8	50	55.4	1	2	90	0.00	29.820 
20:35	75.6	75.6	77.9	48	54.5	1	2	90	0.00	29.821 
20:40	75.8	75.8	78.0	49	55.3	0	2	90	0.00	29.822 
20:45	75.8	75.8	78.0	48	54.7	0	1	90	0.00	29.823 
20:50	75.8	75.8	78.0	49	55.3	0	2	90	0.00	29.823 
20:55	75.6	75.6	77.9	48	54.5	0	2	68	0.00	29.825 
21:00	74.7	74.7	74.7	50	54.8	0	2	68	0.00	29.824 
21:05	73.9	73.9	73.9	52	55.1	0	2	68	0.00	29.821 
21:10	73.2	73.2	73.2	54	55.5	0	1	68	0.00	29.820 
21:15	72.7	72.7	72.7	56	56.1	0	1	68	0.00	29.821 
21:20	72.3	72.3	72.3	58	56.7	0	1	68	0.00	29.822 
21:25	71.8	71.8	71.8	59	56.7	0	0	---	0.00	29.823 
21:30	71.5	71.5	71.5	61	57.3	0	1	68	0.00	29.823 
21:35	70.9	70.9	70.9	62	57.2	0	1	68	0.00	29.823 
21:40	70.4	70.4	70.4	62	56.7	0	2	68	0.00	29.827 
21:45	69.9	69.9	69.9	63	56.7	0	3	68	0.00	29.824 
21:50	69.4	69.4	69.4	64	56.7	0	2	68	0.00	29.825 
21:55	68.9	68.9	68.9	65	56.6	0	2	68	0.00	29.824 
22:00	68.6	68.6	68.6	66	56.8	0	3	135	0.00	29.823 
22:05	68.4	68.4	68.4	66	56.6	0	1	135	0.00	29.823 
22:10	68.3	68.3	68.3	69	57.7	0	1	135	0.01	29.829 
22:15	68.1	68.1	68.1	75	59.9	0	0	---	0.02	29.823 
22:20	66.9	66.9	66.9	80	60.5	0	1	135	0.00	29.821 
22:25	66.1	66.1	66.1	81	60.1	0	0	---	0.00	29.817 
22:30	65.6	65.6	65.6	83	60.3	0	0	---	0.00	29.817 
22:35	65.3	65.3	65.3	85	60.7	0	1	135	0.00	29.821 
22:40	65.0	65.0	65.0	86	60.7	0	1	135	0.00	29.818 
22:45	64.7	64.7	64.7	86	60.4	0	1	135	0.00	29.815 
22:50	64.7	64.7	64.7	87	60.7	0	1	135	0.00	29.820 
22:55	64.5	64.5	64.5	87	60.5	0	1	135	0.00	29.822 
23:00	64.5	64.5	64.5	88	60.9	0	1	135	0.00	29.824 
23:05	64.5	64.5	64.5	89	61.2	0	0	---	0.01	29.820 
23:10	64.3	64.3	64.3	89	61.0	0	1	135	0.00	29.813 
23:15	64.3	64.3	64.3	90	61.3	1	2	135	0.00	29.810 
23:20	64.3	64.3	64.3	89	61.0	2	3	135	0.00	29.808 
23:25	64.3	64.3	64.3	89	61.0	1	3	90	0.00	29.805 
23:30	64.3	64.3	64.3	88	60.7	1	3	90	0.00	29.803 
23:35	64.3	64.3	64.3	88	60.7	1	3	90	0.00	29.804 
23:40	64.3	64.3	64.3	88	60.7	0	2	90	0.00	29.807 
23:45	64.3	64.3	64.3	87	60.3	0	2	90	0.00	29.823 
23:50	64.5	64.5	64.5	88	60.9	1	2	90	0.01	29.836 
23:55	64.2	64.2	64.2	88	60.6	0	2	45	0.02	29.823 

CoCoRaHS
IN-AL-39
A2 Web Hosting
Creative Commons License
GoDaddy
Look for:

loaded 2017-10-19 14:22:38 • last modified 2010-11-18 10:43:29
Privacy PolicyDisclaimer
• wx.awcolley.com is powered by PmWiki v.2002016 •
• all content (unless otherwise noted) © 2017 A W Colley